Terminal Aerodrome Forecast
Issued by NWS

Home | Current Version | Previous Version | Text Only | Print | Product List | Glossary On
Versions: 1 2 3 4 5 6 7 8 9 10 11 12 13 14 15 16 17 18 19 20 21 22 23 24 25 26 27 28 29 30 31 32 33 34 35
000
FTUS45 KGJT 032325
TAFASE
TAF
KASE 032325Z 0400/0424 18018G25KT P6SM -RA BKN080
     FM040200 24006KT P6SM VCSH SCT090 BKN120
     FM040600 21005KT P6SM SCT090 BKN150
     FM041200 04004KT P6SM SCT090 BKN150
     FM041800 33006KT P6SM VCSH BKN100
     FM042100 20007KT P6SM VCTS BKN100CB=

USA.gov is the U.S. government's official web portal to all federal, state and local government web resources and services.